Time;durP1;ratioP1;P1;durP2;ratioP2;P2;SDS_P1;SDS_P2;PMS_P1;PMS_P2;Temp;Humidity;BMP_temperature;BMP_pressure;BME280_temperature;BME280_humidity;BME280_pressure;Samples;Min_cycle;Max_cycle;Signal;HPM_P1;HPM_P2
2022/12/01 00:00:00;;;;;;;28.60;15.15;;;;;;;4.83;100.00;102623.59;4973838;28;20105;-84
2022/12/01 00:02:43;;;;;;;27.23;13.75;;;;;;;4.84;100.00;102618.50;4972883;28;20031;-84
2022/12/01 00:05:08;;;;;;;24.67;11.77;;;;;;;4.86;100.00;102614.28;4973686;28;20075;-84
2022/12/01 00:07:34;;;;;;;28.65;15.18;;;;;;;4.85;100.00;102617.69;4965028;28;20081;-84
2022/12/01 00:12:49;;;;;;;24.55;12.40;;;;;;;4.89;100.00;102611.84;4954424;29;20066;-84
2022/12/01 00:15:15;;;;;;;27.58;13.15;;;;;;;4.91;100.00;102619.59;4953991;29;20413;-84
2022/12/01 00:17:42;;;;;;;27.80;13.82;;;;;;;4.90;100.00;102612.72;4954104;29;20031;-84
2022/12/01 00:20:08;;;;;;;31.38;15.23;;;;;;;4.88;100.00;102607.53;4954141;29;20035;-84
2022/12/01 00:22:33;;;;;;;33.20;17.40;;;;;;;4.87;100.00;102610.00;4954298;29;20050;-84
2022/12/01 00:24:59;;;;;;;34.83;17.48;;;;;;;4.81;100.00;102604.66;4953389;29;20032;-84
2022/12/01 00:27:24;;;;;;;33.13;17.77;;;;;;;4.81;100.00;102612.38;4954070;29;20031;-84
2022/12/01 00:30:04;;;;;;;34.85;18.02;;;;;;;4.77;100.00;102614.81;4954202;29;20023;-84
2022/12/01 00:32:48;;;;;;;35.20;18.25;;;;;;;4.81;100.00;102617.53;4953138;28;20057;-84
2022/12/01 00:35:14;;;;;;;33.03;17.35;;;;;;;4.79;100.00;102610.63;4953946;28;20059;-84
2022/12/01 00:37:49;;;;;;;32.30;16.20;;;;;;;4.79;100.00;102615.75;4962567;28;20038;-84
2022/12/01 00:40:14;;;;;;;35.55;17.90;;;;;;;4.84;100.00;102622.78;4975871;28;20034;-84
2022/12/01 00:42:39;;;;;;;31.88;15.80;;;;;;;4.85;100.00;102611.66;4976866;28;20034;-84
2022/12/01 00:45:05;;;;;;;32.63;16.65;;;;;;;4.83;100.00;102610.75;4976006;28;20031;-84
2022/12/01 00:47:46;;;;;;;34.63;17.85;;;;;;;4.83;100.00;102613.31;4976096;28;20121;-84
2022/12/01 00:50:11;;;;;;;32.38;16.17;;;;;;;4.83;100.00;102609.03;4976215;28;20085;-84
2022/12/01 00:52:36;;;;;;;30.60;14.63;;;;;;;4.84;100.00;102608.22;4975824;28;20109;-84
2022/12/01 00:55:19;;;;;;;30.40;14.13;;;;;;;4.89;100.00;102610.97;4976550;28;20538;-84
2022/12/01 00:57:45;;;;;;;29.25;13.82;;;;;;;4.87;100.00;102612.59;4975267;28;20069;-84
2022/12/01 01:00:11;;;;;;;39.47;18.75;;;;;;;4.77;100.00;102614.81;4976325;28;20106;-84
2022/12/01 01:02:45;;;;;;;39.58;19.00;;;;;;;4.81;100.00;102612.38;4976194;28;20082;-84
2022/12/01 01:05:11;;;;;;;35.63;18.08;;;;;;;4.78;100.00;102603.72;4976001;28;20073;-84
2022/12/01 01:07:36;;;;;;;38.47;19.50;;;;;;;4.78;100.00;102614.00;4975938;28;20027;-84
2022/12/01 01:10:01;;;;;;;43.50;20.65;;;;;;;4.75;100.00;102624.19;4976661;28;20034;-84
2022/12/01 01:12:37;;;;;;;39.40;19.65;;;;;;;4.73;100.00;102618.09;4975416;28;20070;-84
2022/12/01 01:15:20;;;;;;;33.88;16.45;;;;;;;4.77;100.00;102631.97;4975960;28;20373;-84
2022/12/01 01:17:46;;;;;;;32.92;15.55;;;;;;;4.77;100.00;102631.97;4976327;28;20027;-84
2022/12/01 01:20:11;;;;;;;36.83;18.10;;;;;;;4.76;100.00;102631.06;4975164;28;20070;-84
2022/12/01 01:22:43;;;;;;;38.17;19.15;;;;;;;4.74;100.00;102624.13;4976375;28;20030;-84
2022/12/01 01:25:08;;;;;;;33.88;16.30;;;;;;;4.77;100.00;102629.41;4975831;28;20037;-84
2022/12/01 01:27:48;;;;;;;31.77;15.02;;;;;;;4.75;100.00;102634.47;4975505;28;20048;-83
2022/12/01 01:30:14;;;;;;;33.45;16.25;;;;;;;4.76;100.00;102628.50;4976078;28;20348;-84
2022/12/01 01:32:45;;;;;;;29.88;14.60;;;;;;;4.81;100.00;102643.25;4976403;28;20029;-85
2022/12/01 01:35:10;;;;;;;29.17;14.15;;;;;;;4.84;100.00;102644.22;4974700;28;20126;-85
2022/12/01 01:37:54;;;;;;;31.50;14.68;;;;;;;4.84;100.00;102639.09;4975833;28;20027;-85
2022/12/01 01:40:19;;;;;;;31.65;15.15;;;;;;;4.84;100.00;102646.81;4975083;28;20027;-84
2022/12/01 01:43:00;;;;;;;29.75;14.85;;;;;;;4.82;100.00;102651.00;4974706;28;20034;-83
2022/12/01 01:45:28;;;;;;;34.28;16.60;;;;;;;4.81;100.00;102654.41;4975485;28;20031;-84
2022/12/01 01:48:13;;;;;;;33.10;15.85;;;;;;;4.81;100.00;102648.38;4975012;28;20372;-84
2022/12/01 01:50:38;;;;;;;30.65;14.13;;;;;;;4.83;100.00;102647.63;4975301;28;20376;-85
2022/12/01 01:53:25;;;;;;;26.75;12.43;;;;;;;4.84;100.00;102651.09;4975057;28;20023;-84
2022/12/01 01:55:50;;;;;;;31.58;14.20;;;;;;;4.82;100.00;102642.44;4974563;28;20369;-85
2022/12/01 01:58:19;;;;;;;33.50;15.27;;;;;;;4.82;100.00;102643.28;4975076;28;20030;-84
2022/12/01 02:00:45;;;;;;;29.83;14.15;;;;;;;4.83;100.00;102646.75;4975462;28;20023;-84
2022/12/01 02:03:13;;;;;;;31.83;15.27;;;;;;;4.84;100.00;102649.38;4974105;28;20019;-84
2022/12/01 02:05:57;;;;;;;29.17;13.48;;;;;;;4.86;100.00;102652.00;4975328;28;20471;-84
2022/12/01 02:08:41;;;;;;;27.55;12.90;;;;;;;4.86;100.00;102654.56;4974840;28;20038;-84
2022/12/01 02:11:30;;;;;;;26.02;11.80;;;;;;;4.83;100.00;102645.06;4974916;28;20030;-84
2022/12/01 02:14:25;;;;;;;31.75;15.13;;;;;;;4.81;100.00;102651.81;4975330;28;20029;-84
2022/12/01 02:16:59;;;;;;;32.97;15.98;;;;;;;4.82;100.00;102652.72;4931153;28;20038;-84
2022/12/01 02:19:43;;;;;;;34.20;15.82;;;;;;;4.83;100.00;102655.34;4975210;28;20050;-84
2022/12/01 02:22:39;;;;;;;41.53;20.42;;;;;;;4.88;100.00;102652.94;4967697;28;20035;-83
2022/12/01 02:25:18;;;;;;;37.00;18.55;;;;;;;4.81;100.00;102649.25;4974386;28;20047;-84
2022/12/01 02:27:54;;;;;;;36.17;17.08;;;;;;;4.79;100.00;102651.78;4974865;28;20398;-84
2022/12/01 02:30:28;;;;;;;30.90;15.20;;;;;;;4.81;100.00;102650.97;4974276;28;20122;-84
2022/12/01 02:33:10;;;;;;;31.98;15.15;;;;;;;4.82;100.00;102648.44;4974820;28;20357;-85
2022/12/01 02:35:53;;;;;;;32.08;14.85;;;;;;;4.83;100.00;102644.19;4974591;28;20026;-84
2022/12/01 02:38:42;;;;;;;34.42;15.73;;;;;;;4.80;100.00;102650.06;4974104;28;20030;-84
2022/12/01 02:41:15;;;;;;;30.67;14.75;;;;;;;4.81;100.00;102645.81;4974636;28;20077;-84
2022/12/01 02:43:44;;;;;;;31.73;14.27;;;;;;;4.81;100.00;102649.25;4974698;28;20027;-83
2022/12/01 02:46:43;;;;;;;31.35;14.75;;;;;;;4.81;100.00;102654.41;4973946;28;20489;-84
2022/12/01 02:49:19;;;;;;;32.13;15.75;;;;;;;4.79;100.00;102651.78;4959778;28;20039;-84
2022/12/01 02:51:45;;;;;;;28.05;12.95;;;;;;;4.82;100.00;102647.56;4974087;28;20384;-84
2022/12/01 02:54:13;;;;;;;28.17;12.45;;;;;;;4.84;100.00;102648.50;4974645;28;20031;-84
2022/12/01 02:56:53;;;;;;;27.70;12.82;;;;;;;4.83;100.00;102646.75;4968059;28;20067;-84
2022/12/01 02:59:19;;;;;;;26.45;11.48;;;;;;;4.84;100.00;102649.38;5010780;23;20066;-84
2022/12/01 03:01:45;;;;;;;28.20;12.20;;;;;;;4.85;100.00;102651.13;4982904;28;20034;-84
2022/12/01 03:04:30;;;;;;;33.58;16.08;;;;;;;4.80;100.00;102650.06;4993559;28;20490;-84
2022/12/01 03:07:07;;;;;;;34.25;16.33;;;;;;;4.81;100.00;102650.97;4993554;28;20022;-84
2022/12/01 03:10:04;;;;;;;32.25;15.32;;;;;;;4.78;100.00;102651.72;4993949;28;20022;-84
2022/12/01 03:12:53;;;;;;;35.00;16.73;;;;;;;4.78;100.00;102650.03;4993467;28;20030;-83
2022/12/01 03:16:04;;;;;;;37.67;18.40;;;;;;;4.75;100.00;102649.03;4993442;28;20030;-84
2022/12/01 03:18:55;;;;;;;31.42;15.65;;;;;;;4.77;100.00;102655.13;4914431;29;20038;-83
2022/12/01 03:22:14;;;;;;;30.58;14.43;;;;;;;4.79;100.00;102658.59;4971067;28;20042;-84
2022/12/01 03:24:43;;;;;;;38.20;19.92;;;;;;;4.70;100.00;102656.59;4926581;28;20034;-83
2022/12/01 03:27:12;;;;;;;39.95;19.92;;;;;;;4.66;100.00;102652.13;4992852;28;20037;-84
2022/12/01 03:29:56;;;;;;;34.00;17.15;;;;;;;4.73;100.00;102651.53;4993686;28;20022;-84
2022/12/01 03:32:46;;;;;;;33.65;17.10;;;;;;;4.70;100.00;102647.97;4992469;28;20045;-84
2022/12/01 03:35:37;;;;;;;34.08;16.60;;;;;;;4.72;100.00;102651.47;4992756;28;20524;-84
2022/12/01 03:38:27;;;;;;;38.00;19.83;;;;;;;4.66;100.00;102652.13;4993077;28;20116;-83
2022/12/01 03:41:00;;;;;;;35.45;17.27;;;;;;;4.71;100.00;102657.44;4992401;28;20026;-83
2022/12/01 03:43:50;;;;;;;31.77;15.30;;;;;;;4.72;100.00;102651.47;4993278;28;20394;-84
2022/12/01 03:46:41;;;;;;;33.92;17.23;;;;;;;4.72;100.00;102648.91;4993256;28;20030;-84
2022/12/01 03:49:08;;;;;;;34.03;16.33;;;;;;;4.70;100.00;102638.56;4993054;28;20034;-84
2022/12/01 03:51:58;;;;;;;35.30;17.98;;;;;;;4.70;100.00;102648.88;4994216;28;20096;-84
2022/12/01 03:55:16;;;;;;;35.28;17.63;;;;;;;4.70;100.00;102648.88;4992768;28;20041;-83
2022/12/01 03:58:03;;;;;;;34.38;16.73;;;;;;;4.71;100.00;102653.19;4914480;29;20038;-84
2022/12/01 04:00:54;;;;;;;34.30;17.25;;;;;;;4.71;100.00;102653.19;4899879;29;20071;-84
2022/12/01 04:03:32;;;;;;;29.70;15.35;;;;;;;4.70;100.00;102651.44;4894840;29;20041;-84
2022/12/01 04:05:58;;;;;;;29.67;15.15;;;;;;;4.72;100.00;102654.06;4895421;29;20567;-83
2022/12/01 04:08:32;;;;;;;29.77;13.88;;;;;;;4.75;100.00;102654.19;4912082;29;20067;-83
2022/12/01 04:10:58;;;;;;;33.58;16.63;;;;;;;4.69;100.00;102664.22;4991771;28;20038;-84
2022/12/01 04:13:24;;;;;;;31.88;15.77;;;;;;;4.73;100.00;102654.09;4993173;28;20613;-83
2022/12/01 04:15:50;;;;;;;33.40;16.85;;;;;;;4.73;100.00;102653.25;4996364;28;20034;-83
2022/12/01 04:18:16;;;;;;;32.70;16.27;;;;;;;4.72;100.00;102652.38;4996668;28;20027;-83
2022/12/01 04:20:46;;;;;;;34.00;17.00;;;;;;;4.68;100.00;102652.16;4991130;28;20078;-85
2022/12/01 04:23:58;;;;;;;33.40;16.80;;;;;;;4.71;100.00;102662.59;5069930;23;20027;-83
2022/12/01 04:28:28;;;;;;;25.58;12.57;;;;;;;4.75;100.00;102660.19;4994008;28;20415;-84
2022/12/01 04:30:53;;;;;;;31.60;15.65;;;;;;;4.76;100.00;102655.94;4996047;28;20023;-84
2022/12/01 04:33:19;;;;;;;27.42;13.35;;;;;;;4.77;100.00;102650.84;4996561;28;20051;-84
2022/12/01 04:35:44;;;;;;;26.15;12.65;;;;;;;4.79;100.00;102656.03;4996110;28;20121;-83
2022/12/01 04:38:38;;;;;;;26.40;12.35;;;;;;;4.79;100.00;102656.94;4983508;28;20117;-84
2022/12/01 04:41:13;;;;;;;30.30;14.57;;;;;;;4.77;100.00;102652.56;4948362;28;20031;-83
2022/12/01 04:43:39;;;;;;;26.38;12.70;;;;;;;4.77;100.00;102655.97;4976223;28;20147;-83
2022/12/01 04:46:39;;;;;;;28.45;13.82;;;;;;;4.80;100.00;102657.78;4976315;28;20034;-83
2022/12/01 04:49:16;;;;;;;28.27;13.02;;;;;;;4.80;100.00;102655.22;4976353;28;20473;-83
2022/12/01 04:51:41;;;;;;;28.50;13.57;;;;;;;4.78;100.00;102655.16;4976114;28;20046;-83
2022/12/01 04:54:10;;;;;;;25.45;12.25;;;;;;;4.82;100.00;102655.28;4976844;28;20023;-83
2022/12/01 04:56:35;;;;;;;26.08;11.45;;;;;;;4.82;100.00;102657.88;4983087;23;20476;-83
2022/12/01 04:59:13;;;;;;;33.17;17.20;;;;;;;4.73;100.00;102654.09;4976137;28;20094;-84
2022/12/01 05:01:50;;;;;;;35.47;18.80;;;;;;;4.69;100.00;102649.69;4976599;28;20033;-83
2022/12/01 05:04:16;;;;;;;33.92;17.42;;;;;;;4.73;100.00;102656.69;4976132;28;20031;-83
2022/12/01 05:06:41;;;;;;;29.88;15.20;;;;;;;4.76;100.00;102653.38;4975714;28;20367;-83
2022/12/01 05:09:30;;;;;;;27.33;13.15;;;;;;;4.76;100.00;102656.81;4976404;28;20423;-83
2022/12/01 05:12:16;;;;;;;28.95;14.55;;;;;;;4.75;100.00;102652.47;4975201;28;20042;-83
2022/12/01 05:14:56;;;;;;;30.27;14.82;;;;;;;4.76;100.00;102648.22;4976269;28;20069;-84
2022/12/01 05:17:37;;;;;;;26.52;13.38;;;;;;;4.77;100.00;102648.25;4975808;28;20027;-83
2022/12/01 05:22:47;;;;;;;25.58;11.82;;;;;;;4.80;100.00;102657.78;4976774;28;20558;-83
2022/12/01 05:25:33;;;;;;;24.42;11.50;;;;;;;4.82;100.00;102656.16;4974753;28;20035;-83
2022/12/01 05:28:24;;;;;;;32.67;16.53;;;;;;;4.77;100.00;102655.13;4976707;28;20365;-83
2022/12/01 05:31:31;;;;;;;33.40;17.15;;;;;;;4.76;100.00;102656.81;4956967;29;20043;-83
2022/12/01 05:33:59;;;;;;;30.25;15.07;;;;;;;4.77;100.00;102658.56;4879476;29;20046;-84
2022/12/01 05:36:28;;;;;;;30.95;15.75;;;;;;;4.77;100.00;102662.84;4970125;28;20097;-83
2022/12/01 05:39:11;;;;;;;28.35;14.05;;;;;;;4.76;100.00;102666.22;4976038;28;20608;-84
2022/12/01 05:41:36;;;;;;;34.13;17.38;;;;;;;4.72;100.00;102669.50;4975145;28;20038;-83
2022/12/01 05:44:02;;;;;;;31.42;15.98;;;;;;;4.70;100.00;102665.97;4975653;28;20027;-83
2022/12/01 05:46:27;;;;;;;33.20;16.80;;;;;;;4.68;100.00;102662.47;4975751;28;20390;-83
2022/12/01 05:49:05;;;;;;;29.05;14.98;;;;;;;4.68;100.00;102658.22;4975498;28;20073;-84
2022/12/01 05:51:45;;;;;;;29.33;14.70;;;;;;;4.71;100.00;102670.31;4975564;28;20065;-84
2022/12/01 05:54:11;;;;;;;30.92;15.00;;;;;;;4.70;100.00;102663.41;4974596;28;20066;-83
2022/12/01 05:56:36;;;;;;;27.98;13.40;;;;;;;4.69;100.00;102667.69;4974885;28;20090;-84
2022/12/01 05:59:01;;;;;;;27.00;12.63;;;;;;;4.69;100.00;102670.25;4975595;28;20073;-84
2022/12/01 06:01:42;;;;;;;26.38;12.68;;;;;;;4.71;100.00;102676.34;4974385;28;20063;-84
2022/12/01 06:04:07;;;;;;;28.42;12.98;;;;;;;4.70;100.00;102665.97;4975127;28;20027;-84
2022/12/01 06:06:33;;;;;;;27.73;13.55;;;;;;;4.74;100.00;102673.88;4975198;28;20034;-84
2022/12/01 06:08:58;;;;;;;29.65;15.38;;;;;;;4.72;100.00;102672.97;4974897;28;20031;-84
2022/12/01 06:11:33;;;;;;;25.85;12.73;;;;;;;4.72;100.00;102674.63;4974862;28;20045;-84
2022/12/01 06:14:14;;;;;;;28.05;13.98;;;;;;;4.75;100.00;102667.03;4974980;28;20061;-84
2022/12/01 06:16:39;;;;;;;28.65;13.68;;;;;;;4.73;100.00;102677.25;4974724;28;20114;-84
2022/12/01 06:19:04;;;;;;;32.17;15.95;;;;;;;4.73;100.00;102674.69;4975324;28;20025;-84
2022/12/01 06:21:48;;;;;;;40.30;20.83;;;;;;;4.64;100.00;102672.66;4975127;28;20116;-85
2022/12/01 06:24:47;;;;;;;39.42;20.42;;;;;;;4.68;100.00;102665.94;4974449;28;20035;-84
2022/12/01 06:27:13;;;;;;;36.97;18.98;;;;;;;4.66;100.00;102670.13;4974989;28;20025;-84
2022/12/01 06:29:53;;;;;;;41.47;20.20;;;;;;;4.63;100.00;102673.47;4974492;28;20023;-85
2022/12/01 06:32:31;;;;;;;37.30;19.20;;;;;;;4.64;100.00;102674.34;4974367;28;20030;-84
2022/12/01 06:34:56;;;;;;;35.08;18.02;;;;;;;4.64;100.00;102671.75;4975484;28;20026;-84
2022/12/01 06:37:34;;;;;;;35.38;17.73;;;;;;;4.62;100.00;102675.97;4974948;28;20415;-84
2022/12/01 06:40:09;;;;;;;40.75;20.65;;;;;;;4.59;100.00;102673.28;4974430;28;20034;-84
2022/12/01 06:42:49;;;;;;;39.63;20.42;;;;;;;4.59;100.00;102665.56;4974496;28;20086;-84
2022/12/01 06:45:29;;;;;;;35.20;17.75;;;;;;;4.64;100.00;102677.78;4974077;28;20030;-85
2022/12/01 06:48:11;;;;;;;37.03;19.02;;;;;;;4.56;100.00;102678.31;4974806;28;20031;-86
2022/12/01 06:51:03;;;;;;;41.80;20.63;;;;;;;4.58;100.00;102682.69;4974269;28;20476;-85
2022/12/01 06:53:31;;;;;;;40.13;20.00;;;;;;;4.59;100.00;102688.72;4943016;28;20061;-85
2022/12/01 06:56:16;;;;;;;38.25;19.42;;;;;;;4.56;100.00;102686.03;4973564;28;20050;-86
2022/12/01 06:58:42;;;;;;;38.53;19.15;;;;;;;4.60;100.00;102690.47;4973994;28;20090;-86
2022/12/01 07:01:11;;;;;;;42.00;21.08;;;;;;;4.57;100.00;102690.34;4974344;28;20062;-85
2022/12/01 07:03:37;;;;;;;39.65;19.25;;;;;;;4.59;100.00;102699.88;4974041;28;20117;-83
2022/12/01 07:06:03;;;;;;;40.40;20.15;;;;;;;4.58;100.00;102697.25;4973648;28;20037;-83
2022/12/01 07:08:55;;;;;;;40.67;19.95;;;;;;;4.59;100.00;102706.72;4972906;28;20073;-83
2022/12/01 07:11:26;;;;;;;42.60;21.77;;;;;;;4.57;100.00;102706.63;4959052;28;20035;-82
2022/12/01 07:14:13;;;;;;;41.40;21.27;;;;;;;4.56;100.00;102702.31;4974516;28;20019;-82
2022/12/01 07:16:38;;;;;;;;;;;;;;;4.57;100.00;102716.94;4974983;28;20062;-81
2022/12/01 07:19:06;;;;;;;41.03;21.40;;;;;;;4.56;100.00;102707.47;4973710;28;19926;-82
2022/12/01 07:21:31;;;;;;;41.58;20.77;;;;;;;4.58;100.00;102708.41;4974091;28;20045;-82
2022/12/01 07:23:57;;;;;;;40.95;21.00;;;;;;;4.59;100.00;102719.59;4973974;28;20480;-82
2022/12/01 07:26:22;;;;;;;41.25;21.38;;;;;;;4.55;100.00;102721.16;4973199;28;20118;-82
2022/12/01 07:28:57;;;;;;;40.15;20.52;;;;;;;4.57;100.00;102722.06;4974070;28;20035;-83
2022/12/01 07:31:22;;;;;;;38.45;19.48;;;;;;;4.60;100.00;102716.19;4974035;28;20376;-83
2022/12/01 07:33:48;;;;;;;32.88;16.52;;;;;;;4.64;100.00;102721.53;4972992;28;20089;-83
2022/12/01 07:36:22;;;;;;;38.22;20.00;;;;;;;4.62;100.00;102723.16;4973671;28;20062;-83
2022/12/01 07:38:48;;;;;;;36.63;19.13;;;;;;;4.69;100.00;102725.94;4973992;28;20034;-85
2022/12/01 07:41:15;;;;;;;40.85;20.83;;;;;;;4.63;100.00;102722.34;4973499;28;20471;-83
2022/12/01 07:43:41;;;;;;;40.03;20.73;;;;;;;4.64;100.00;102718.94;4973850;28;20460;-83
2022/12/01 07:46:08;;;;;;;37.80;19.48;;;;;;;4.62;100.00;102715.44;4973595;28;20085;-83
2022/12/01 07:48:36;;;;;;;37.38;19.33;;;;;;;4.67;100.00;102725.03;4973678;28;20026;-84
2022/12/01 07:51:02;;;;;;;39.90;20.25;;;;;;;4.62;99.85;102729.97;4977902;28;20038;-84
2022/12/01 07:53:44;;;;;;;39.00;20.42;;;;;;;4.63;100.00;102722.34;4971551;28;20073;-83
2022/12/01 07:56:26;;;;;;;38.60;19.98;;;;;;;4.63;100.00;102730.06;4962486;28;20134;-84
2022/12/01 07:58:51;;;;;;;40.15;19.95;;;;;;;4.66;99.68;102737.00;4954838;29;20403;-83
2022/12/01 08:01:26;;;;;;;39.60;20.88;;;;;;;4.67;99.80;102731.03;4957341;29;20103;-84
2022/12/01 08:04:10;;;;;;;35.35;18.25;;;;;;;4.71;100.00;102734.59;4958079;29;20125;-83
2022/12/01 08:10:10;;;;;;;34.45;18.20;;;;;;;4.75;99.70;102741.63;4878758;29;20044;-83
2022/12/01 08:12:56;;;;;;;40.60;21.13;;;;;;;4.70;98.45;102748.28;4924895;29;20047;-83
2022/12/01 08:15:22;;;;;;;43.13;21.50;;;;;;;4.66;97.89;102746.44;4957198;29;20484;-83
2022/12/01 08:17:47;;;;;;;39.90;21.38;;;;;;;4.68;98.08;102742.19;4958062;29;20047;-83
2022/12/01 08:20:30;;;;;;;38.83;20.27;;;;;;;4.68;98.45;102748.22;4973303;28;20025;-83
2022/12/01 08:22:59;;;;;;;34.28;18.20;;;;;;;4.73;99.13;102749.28;4977216;28;20038;-83
2022/12/01 08:25:31;;;;;;;33.20;17.23;;;;;;;4.76;99.62;102746.84;4977024;28;20027;-83
2022/12/01 08:27:58;;;;;;;29.33;14.75;;;;;;;4.83;99.70;102749.66;4977079;28;20023;-83
2022/12/01 08:30:23;;;;;;;27.00;13.00;;;;;;;4.87;99.79;102746.38;4976448;28;20031;-84
2022/12/01 08:32:52;;;;;;;25.98;12.45;;;;;;;4.92;99.69;102753.47;4977107;28;20074;-83
2022/12/01 08:35:17;;;;;;;28.15;13.75;;;;;;;4.93;99.63;102751.78;4976716;28;20058;-83
2022/12/01 08:37:43;;;;;;;31.60;15.15;;;;;;;4.92;99.50;102750.88;4976469;28;20073;-83
2022/12/01 08:40:11;;;;;;;32.10;16.55;;;;;;;4.90;99.58;102749.06;4976863;28;20055;-83
2022/12/01 08:42:37;;;;;;;30.88;15.55;;;;;;;4.92;99.68;102756.03;4976124;28;20080;-83
2022/12/01 08:45:06;;;;;;;27.58;13.55;;;;;;;4.96;99.84;102757.03;4976599;28;20030;-83
2022/12/01 08:47:37;;;;;;;25.42;12.57;;;;;;;4.97;99.60;102753.63;4976756;28;20089;-84
2022/12/01 08:50:05;;;;;;;28.95;14.55;;;;;;;4.98;99.57;102763.09;4975684;28;20038;-83
2022/12/01 08:52:45;;;;;;;27.40;13.88;;;;;;;4.98;99.37;102754.53;4977172;28;20035;-83
2022/12/01 08:55:10;;;;;;;26.70;13.20;;;;;;;5.01;99.76;102752.94;4976180;28;20022;-83
2022/12/01 08:57:36;;;;;;;33.38;17.48;;;;;;;5.01;99.15;102759.81;4975955;28;20506;-84
2022/12/01 09:00:02;;;;;;;31.00;15.60;;;;;;;5.02;99.68;102757.28;4983651;23;20082;-83
2022/12/01 09:02:27;;;;;;;29.42;15.60;;;;;;;5.03;99.37;102763.28;4976651;28;20105;-83
2022/12/01 09:04:53;;;;;;;38.25;21.05;;;;;;;4.99;99.17;102758.84;4976349;28;20037;-83
2022/12/01 09:07:19;;;;;;;40.63;20.80;;;;;;;4.97;98.09;102760.50;4975628;28;20061;-83
2022/12/01 09:09:54;;;;;;;38.67;21.10;;;;;;;4.88;96.51;102759.31;4976274;28;20154;-83
2022/12/01 09:12:19;;;;;;;39.35;20.92;;;;;;;4.92;97.21;102760.31;4975301;28;20114;-83
2022/12/01 09:14:47;;;;;;;35.60;18.88;;;;;;;4.98;98.12;102760.53;4976087;28;20062;-83
2022/12/01 09:17:13;;;;;;;32.83;16.80;;;;;;;5.03;98.23;102755.56;4976079;28;20047;-83
2022/12/01 09:19:38;;;;;;;31.83;16.05;;;;;;;5.08;98.32;102767.78;4976192;28;20070;-83
2022/12/01 09:22:04;;;;;;;34.58;18.00;;;;;;;5.08;97.41;102765.22;4976583;28;20474;-84
2022/12/01 09:24:29;;;;;;;31.90;16.90;;;;;;;5.11;97.98;102764.47;4976331;28;20023;-83
2022/12/01 09:26:57;;;;;;;31.48;16.42;;;;;;;5.15;98.01;102768.91;4975552;28;20056;-85
2022/12/01 09:29:25;;;;;;;33.08;16.95;;;;;;;5.19;97.45;102769.91;5031240;23;20027;-83
2022/12/01 09:31:55;;;;;;;30.73;16.27;;;;;;;5.23;97.79;102774.34;4975648;28;20026;-83
2022/12/01 09:34:20;;;;;;;32.58;16.73;;;;;;;5.26;97.36;102777.06;4975611;28;20026;-83
2022/12/01 09:36:46;;;;;;;31.92;15.90;;;;;;;5.30;97.79;102771.19;4975912;28;20046;-84
2022/12/01 09:39:14;;;;;;;32.27;16.70;;;;;;;5.34;97.44;102778.22;4975336;28;20023;-86
2022/12/01 09:42:03;;;;;;;29.88;15.52;;;;;;;5.38;97.69;102779.19;4976550;28;20110;-87
2022/12/01 09:44:31;;;;;;;29.52;14.85;;;;;;;5.40;97.70;102782.72;4975987;28;20377;-86
2022/12/01 09:47:29;;;;;;;31.42;16.38;;;;;;;5.43;97.04;102775.09;4975786;28;20035;-85
2022/12/01 09:50:05;;;;;;;31.10;16.42;;;;;;;5.46;97.17;102769.19;4972334;28;20046;-85
2022/12/01 09:52:39;;;;;;;34.30;18.13;;;;;;;5.45;96.38;102775.16;4975543;28;20030;-84
2022/12/01 09:55:11;;;;;;;34.13;18.10;;;;;;;5.43;95.91;102774.22;4974667;28;20491;-84
2022/12/01 09:57:39;;;;;;;33.50;18.27;;;;;;;5.46;96.60;102774.34;4975303;28;20058;-84
2022/12/01 10:00:19;;;;;;;31.45;16.67;;;;;;;5.50;97.37;102769.34;4974694;28;20019;-84
2022/12/01 10:02:57;;;;;;;29.48;15.30;;;;;;;5.53;96.06;102768.56;4975866;28;20019;-84
2022/12/01 10:05:33;;;;;;;29.50;15.35;;;;;;;5.55;96.54;102765.25;4975310;28;20114;-85
2022/12/01 10:08:02;;;;;;;37.08;18.75;;;;;;;5.54;94.96;102758.34;4974868;28;20097;-84
2022/12/01 10:10:41;;;;;;;34.08;17.23;;;;;;;5.51;94.62;102763.38;4975446;28;20576;-84
2022/12/01 10:13:16;;;;;;;41.75;22.45;;;;;;;5.44;93.03;102760.53;4974139;28;20510;-84
2022/12/01 10:15:50;;;;;;;39.92;21.50;;;;;;;5.50;95.22;102758.19;4974956;28;20025;-84
2022/12/01 10:18:38;;;;;;;43.63;23.00;;;;;;;5.47;93.10;102758.94;4975232;28;20112;-85
2022/12/01 10:21:13;;;;;;;39.47;21.40;;;;;;;5.49;93.58;102762.44;4974450;28;20027;-84
2022/12/01 10:23:54;;;;;;;37.00;19.60;;;;;;;5.54;94.86;102754.88;4975464;28;20031;-84
2022/12/01 10:26:29;;;;;;;33.08;17.30;;;;;;;5.60;95.39;102755.13;4975156;28;20475;-84
2022/12/01 10:29:09;;;;;;;31.70;16.45;;;;;;;5.65;95.37;102744.97;4974732;28;20027;-84
2022/12/01 10:31:40;;;;;;;29.58;14.70;;;;;;;5.68;95.71;102745.97;4974777;28;20046;-84
2022/12/01 10:34:13;;;;;;;32.15;16.17;;;;;;;5.74;94.86;102745.31;4974733;28;20034;-84
2022/12/01 10:36:38;;;;;;;32.20;16.50;;;;;;;5.78;93.63;102739.44;4974564;28;20388;-84
2022/12/01 10:39:07;;;;;;;39.75;20.42;;;;;;;5.74;91.01;102737.56;4974848;28;20034;-84
2022/12/01 10:41:36;;;;;;;36.60;18.73;;;;;;;5.79;93.83;102737.72;4974587;28;20027;-84
2022/12/01 10:44:04;;;;;;;32.65;16.77;;;;;;;5.83;94.48;102725.00;4974720;28;20053;-84
2022/12/01 10:46:40;;;;;;;29.90;15.05;;;;;;;5.93;94.59;102726.22;4974977;28;20497;-85
2022/12/01 10:49:10;;;;;;;27.73;13.15;;;;;;;6.01;95.04;102724.78;4958611;28;20047;-85
2022/12/01 10:52:23;;;;;;;41.90;20.95;;;;;;;5.98;91.08;102723.78;4955251;29;20073;-85
2022/12/01 10:54:48;;;;;;;37.25;19.45;;;;;;;5.97;92.32;102725.47;4951174;28;20062;-85
2022/12/01 10:57:16;;;;;;;35.05;18.00;;;;;;;5.97;92.50;102722.91;4973123;28;20034;-86
2022/12/01 11:00:07;;;;;;;34.75;17.60;;;;;;;5.97;91.06;102724.59;4973513;28;20046;-86
2022/12/01 11:02:34;;;;;;;36.95;19.65;;;;;;;5.98;91.59;102732.38;4974574;28;20030;-87
2022/12/01 11:05:29;;;;;;;31.55;16.42;;;;;;;6.01;93.06;102723.94;4974293;28;20376;-87
2022/12/01 11:07:54;;;;;;;31.20;15.95;;;;;;;6.03;91.20;102723.16;4974718;28;20029;-87
2022/12/01 11:10:31;;;;;;;32.25;15.68;;;;;;;6.06;92.49;102716.34;4973563;28;20387;-86
2022/12/01 11:13:19;;;;;;;33.13;16.95;;;;;;;6.08;91.90;102718.16;4974274;28;20045;-87
2022/12/01 11:15:52;;;;;;;33.75;17.58;;;;;;;6.08;91.85;102722.44;4974559;28;20041;-86
2022/12/01 11:18:26;;;;;;;35.00;18.15;;;;;;;6.00;89.73;102724.75;4973171;28;20027;-86
2022/12/01 11:21:26;;;;;;;37.03;19.00;;;;;;;6.06;91.39;102717.22;4974467;28;20022;-87
2022/12/01 11:23:54;;;;;;;35.22;18.50;;;;;;;6.07;91.19;102718.13;4973571;28;20027;-84
2022/12/01 11:26:33;;;;;;;37.58;19.77;;;;;;;6.06;91.36;102717.22;4973386;28;20030;-85
2022/12/01 11:29:05;;;;;;;33.67;17.15;;;;;;;6.09;91.11;102703.53;4974338;28;20081;-85
2022/12/01 11:31:41;;;;;;;30.00;15.30;;;;;;;6.13;91.80;102708.00;4974299;28;20046;-85
2022/12/01 11:34:18;;;;;;;31.85;16.55;;;;;;;6.14;90.77;102704.59;4973865;28;20050;-85
2022/12/01 11:36:47;;;;;;;36.88;18.95;;;;;;;6.11;91.82;102702.78;4974170;28;20110;-85
2022/12/01 11:39:31;;;;;;;36.17;19.65;;;;;;;6.11;92.56;102699.31;4973534;28;20023;-84
2022/12/01 11:42:23;;;;;;;34.63;18.27;;;;;;;6.10;92.89;102701.03;4973424;28;20031;-84
2022/12/01 11:44:51;;;;;;;37.47;19.95;;;;;;;6.08;92.58;102691.50;4974063;28;20030;-84
2022/12/01 11:47:22;;;;;;;37.28;19.77;;;;;;;6.03;92.34;102689.66;4974350;28;20050;-84
2022/12/01 11:49:59;;;;;;;39.63;21.08;;;;;;;6.03;92.26;102697.38;4968798;28;20023;-83
2022/12/01 11:52:32;;;;;;;36.92;18.73;;;;;;;6.08;92.67;102692.38;4971514;28;20425;-83
2022/12/01 11:55:19;;;;;;;34.35;17.48;;;;;;;6.12;91.64;102690.75;4971805;28;20046;-84